createdAt,value
2022-10-08T00:01:17.335Z,13.93
2022-10-08T00:03:47.780Z,13.91
2022-10-08T00:06:23.490Z,13.90
2022-10-08T00:08:54.954Z,13.88
2022-10-08T00:11:31.332Z,13.88
2022-10-08T00:13:59.282Z,13.86
2022-10-08T00:16:30.474Z,13.83
2022-10-08T00:19:08.033Z,13.80
2022-10-08T00:21:38.034Z,13.77
2022-10-08T00:24:07.470Z,13.74
2022-10-08T00:26:39.961Z,13.71
2022-10-08T00:29:13.850Z,13.67
2022-10-08T00:31:45.923Z,13.66
2022-10-08T00:34:23.237Z,13.63
2022-10-08T00:36:55.098Z,13.63
2022-10-08T00:39:24.576Z,13.64
2022-10-08T00:41:55.376Z,13.63
2022-10-08T00:44:46.636Z,13.58
2022-10-08T00:47:33.438Z,13.56
2022-10-08T00:50:21.267Z,13.53
2022-10-08T00:53:07.703Z,13.49
2022-10-08T00:55:42.575Z,13.49
2022-10-08T00:58:20.140Z,13.45
2022-10-08T01:00:48.263Z,13.43
2022-10-08T01:03:15.260Z,13.38
2022-10-08T01:06:22.487Z,13.37
2022-10-08T01:09:07.137Z,13.36
2022-10-08T01:11:49.447Z,13.35
2022-10-08T01:14:41.595Z,13.33
2022-10-08T01:17:30.335Z,13.31
2022-10-08T01:20:28.580Z,13.29
2022-10-08T01:23:35.043Z,13.29
2022-10-08T01:26:58.655Z,13.28
2022-10-08T01:29:36.553Z,13.27
2022-10-08T01:32:13.593Z,13.27
2022-10-08T01:35:04.157Z,13.27
2022-10-08T01:37:36.927Z,13.24
2022-10-08T01:40:11.692Z,13.28
2022-10-08T01:42:41.137Z,13.28
2022-10-08T01:45:15.287Z,13.29
2022-10-08T01:47:46.028Z,13.29
2022-10-08T01:50:30.696Z,13.28
2022-10-08T01:53:04.294Z,13.27
2022-10-08T01:55:41.955Z,13.27
2022-10-08T01:58:16.018Z,13.27
2022-10-08T02:00:43.225Z,13.26
2022-10-08T02:03:13.872Z,13.25
2022-10-08T02:05:49.305Z,13.21
2022-10-08T02:08:16.729Z,13.22
2022-10-08T02:10:44.666Z,13.21
2022-10-08T02:13:12.324Z,13.19
2022-10-08T02:16:00.509Z,13.19
2022-10-08T02:18:42.117Z,13.16
2022-10-08T02:21:19.753Z,13.18
2022-10-08T02:24:21.379Z,13.16
2022-10-08T02:26:52.692Z,13.14
2022-10-08T02:29:39.639Z,13.15
2022-10-08T02:32:34.537Z,13.15
2022-10-08T02:35:25.427Z,13.13
2022-10-08T02:38:02.835Z,13.14
2022-10-08T02:40:31.299Z,13.15
2022-10-08T02:43:06.499Z,13.16
2022-10-08T02:45:41.554Z,13.14
2022-10-08T02:48:19.342Z,13.14
2022-10-08T02:50:51.378Z,13.15
2022-10-08T02:53:18.772Z,13.17
2022-10-08T02:56:19.913Z,13.15
2022-10-08T02:58:47.493Z,13.14
2022-10-08T03:01:48.337Z,13.14
2022-10-08T03:04:46.932Z,13.14
2022-10-08T03:07:15.526Z,13.17
2022-10-08T03:09:48.706Z,13.18
2022-10-08T03:12:15.646Z,13.20
2022-10-08T03:14:45.746Z,13.19
2022-10-08T03:17:17.693Z,13.20
2022-10-08T03:19:44.588Z,13.21
2022-10-08T03:22:11.850Z,13.22
2022-10-08T03:24:38.728Z,13.22
2022-10-08T03:27:05.619Z,13.23
2022-10-08T03:29:32.517Z,13.24
2022-10-08T03:31:59.405Z,13.27
2022-10-08T03:34:27.028Z,13.28
2022-10-08T03:36:53.916Z,13.29
2022-10-08T03:39:20.790Z,13.31
2022-10-08T03:41:47.670Z,13.32
2022-10-08T03:44:14.549Z,13.30
2022-10-08T03:46:41.433Z,13.34
2022-10-08T03:49:08.312Z,13.33
2022-10-08T03:51:35.333Z,13.33
2022-10-08T03:54:02.230Z,13.32
2022-10-08T03:56:29.391Z,13.31
2022-10-08T03:58:59.208Z,13.29
2022-10-08T04:01:27.849Z,13.26
2022-10-08T04:03:55.100Z,13.24
2022-10-08T04:06:22.229Z,13.23
2022-10-08T04:08:49.168Z,13.18
2022-10-08T04:11:17.752Z,13.16
2022-10-08T04:13:45.176Z,13.13
2022-10-08T04:16:15.792Z,13.11
2022-10-08T04:18:43.700Z,13.08
2022-10-08T04:21:14.988Z,13.03
2022-10-08T04:23:43.166Z,13.03
2022-10-08T04:26:12.763Z,13.01
2022-10-08T04:28:41.914Z,12.98
2022-10-08T04:31:23.232Z,12.96
2022-10-08T04:33:51.549Z,12.93
2022-10-08T04:36:22.229Z,12.90
2022-10-08T04:38:49.754Z,12.88
2022-10-08T04:41:25.799Z,12.85
2022-10-08T04:43:54.437Z,12.83
2022-10-08T04:46:22.554Z,12.83
2022-10-08T04:48:55.346Z,12.83
2022-10-08T04:51:24.554Z,12.78
2022-10-08T04:53:54.536Z,12.80
2022-10-08T04:56:28.352Z,12.80
2022-10-08T04:58:57.144Z,12.80
2022-10-08T05:01:26.025Z,12.83
2022-10-08T05:03:55.521Z,12.84
2022-10-08T05:06:29.802Z,12.87
2022-10-08T05:08:59.756Z,12.91
2022-10-08T05:11:27.604Z,12.92
2022-10-08T05:13:57.353Z,12.99
2022-10-08T05:16:25.978Z,13.03
2022-10-08T05:18:53.508Z,13.08
2022-10-08T05:21:27.748Z,13.09
2022-10-08T05:24:07.666Z,13.14
2022-10-08T05:29:24.693Z,13.23
2022-10-08T05:31:51.589Z,13.27
2022-10-08T05:34:18.488Z,13.30
2022-10-08T05:36:45.352Z,13.33
2022-10-08T05:39:12.324Z,13.32
2022-10-08T05:41:39.330Z,13.42
2022-10-08T05:44:07.074Z,13.44
2022-10-08T05:46:36.338Z,13.49
2022-10-08T05:49:06.735Z,13.53
2022-10-08T05:51:33.840Z,13.50
2022-10-08T05:54:00.957Z,13.56
2022-10-08T05:56:28.759Z,13.67
2022-10-08T05:58:55.671Z,13.68
2022-10-08T06:01:28.737Z,13.77
2022-10-08T06:04:07.205Z,13.81
2022-10-08T06:06:36.965Z,13.86
2022-10-08T06:09:04.697Z,13.91
2022-10-08T06:11:33.638Z,13.96
2022-10-08T06:14:01.774Z,14.00
2022-10-08T06:16:30.401Z,14.05
2022-10-08T06:18:57.885Z,14.12
2022-10-08T06:21:26.678Z,14.17
2022-10-08T06:24:06.409Z,14.21
2022-10-08T06:26:37.620Z,14.29
2022-10-08T06:29:07.216Z,14.34
2022-10-08T06:31:35.634Z,14.38
2022-10-08T06:34:04.511Z,14.50
2022-10-08T06:36:33.517Z,14.57
2022-10-08T06:39:05.018Z,14.64
2022-10-08T06:41:34.897Z,14.72
2022-10-08T06:44:04.303Z,14.81
2022-10-08T06:46:32.353Z,14.90
2022-10-08T06:49:01.181Z,14.97
2022-10-08T06:51:29.036Z,15.04
2022-10-08T06:54:01.460Z,15.17
2022-10-08T06:56:33.744Z,15.21
2022-10-08T06:59:00.652Z,15.28
2022-10-08T07:01:33.177Z,15.34
2022-10-08T07:04:02.296Z,15.38
2022-10-08T07:06:29.576Z,15.44
2022-10-08T07:09:00.475Z,15.50
2022-10-08T07:11:28.868Z,15.58
2022-10-08T07:13:56.517Z,15.66
2022-10-08T07:16:25.713Z,15.71
2022-10-08T07:18:54.671Z,15.81
2022-10-08T07:21:22.616Z,15.90
2022-10-08T07:23:49.658Z,15.99
2022-10-08T07:26:19.994Z,16.09
2022-10-08T07:28:54.364Z,16.20
2022-10-08T07:31:28.104Z,16.33
2022-10-08T07:33:56.419Z,16.39
2022-10-08T07:36:25.736Z,16.50
2022-10-08T07:39:08.944Z,16.54
2022-10-08T07:41:36.074Z,16.65
2022-10-08T07:44:05.029Z,16.71
2022-10-08T07:46:37.612Z,16.75
2022-10-08T07:49:04.944Z,16.82
2022-10-08T07:51:34.186Z,16.89
2022-10-08T07:54:03.392Z,16.93
2022-10-08T07:56:31.205Z,16.96
2022-10-08T07:58:59.829Z,16.98
2022-10-08T08:01:29.366Z,16.99
2022-10-08T08:04:06.071Z,16.99
2022-10-08T08:06:36.879Z,16.99
2022-10-08T08:09:04.043Z,16.94
2022-10-08T08:11:30.927Z,17.01
2022-10-08T08:13:57.975Z,17.02
2022-10-08T08:16:27.518Z,17.03
2022-10-08T08:18:58.166Z,17.04
2022-10-08T08:21:37.823Z,17.05
2022-10-08T08:24:11.259Z,17.04
2022-10-08T08:26:40.739Z,17.08
2022-10-08T08:29:18.196Z,17.08
2022-10-08T08:31:47.868Z,17.10
2022-10-08T08:34:24.998Z,17.11
2022-10-08T08:36:56.146Z,17.13
2022-10-08T08:39:26.501Z,17.16
2022-10-08T08:42:21.227Z,17.17
2022-10-08T08:44:56.820Z,17.17
2022-10-08T08:47:32.910Z,17.20
2022-10-08T08:50:26.141Z,17.17
2022-10-08T08:52:53.085Z,17.22
2022-10-08T08:55:32.485Z,17.25
2022-10-08T08:58:19.508Z,17.27
2022-10-08T09:01:02.676Z,17.32
2022-10-08T09:03:40.979Z,17.33
2022-10-08T09:06:13.068Z,17.38
2022-10-08T09:08:48.829Z,17.40
2022-10-08T09:11:20.511Z,17.41
2022-10-08T09:14:11.777Z,17.49
2022-10-08T09:16:39.678Z,17.56
2022-10-08T09:19:09.077Z,17.61
2022-10-08T09:21:36.000Z,17.71
2022-10-08T09:24:03.075Z,17.77
2022-10-08T09:26:35.489Z,17.85
2022-10-08T09:29:04.929Z,17.89
2022-10-08T09:31:39.756Z,17.93
2022-10-08T09:34:18.113Z,17.96
2022-10-08T09:37:01.276Z,18.02
2022-10-08T09:39:31.753Z,18.07
2022-10-08T09:42:07.724Z,18.13
2022-10-08T09:44:52.236Z,18.22
2022-10-08T09:47:23.925Z,18.31
2022-10-08T09:50:09.779Z,18.44
2022-10-08T09:52:40.312Z,18.51
2022-10-08T09:55:20.256Z,18.61
2022-10-08T09:57:51.529Z,18.64
2022-10-08T10:00:37.097Z,18.80
2022-10-08T10:03:16.596Z,18.86
2022-10-08T10:05:43.888Z,18.97
2022-10-08T10:08:50.882Z,19.09
2022-10-08T10:11:38.403Z,19.20
2022-10-08T10:14:16.510Z,19.30
2022-10-08T10:16:45.995Z,19.37
2022-10-08T10:19:22.781Z,19.42
2022-10-08T10:21:59.580Z,19.47
2022-10-08T10:24:48.874Z,19.49
2022-10-08T10:27:52.234Z,19.49
2022-10-08T10:30:22.899Z,19.52
2022-10-08T10:33:15.844Z,19.55
2022-10-08T10:35:54.975Z,19.56
2022-10-08T10:38:39.576Z,19.61
2022-10-08T10:41:33.202Z,19.64
2022-10-08T10:44:10.500Z,19.73
2022-10-08T10:46:46.533Z,19.77
2022-10-08T10:49:24.857Z,19.81
2022-10-08T10:52:31.722Z,19.87
2022-10-08T10:55:21.701Z,19.94
2022-10-08T10:58:19.722Z,19.98
2022-10-08T11:01:20.596Z,20.01
2022-10-08T11:04:10.460Z,20.02
2022-10-08T11:07:05.272Z,20.02
2022-10-08T11:09:51.214Z,19.98
2022-10-08T11:12:48.699Z,19.99
2022-10-08T11:15:36.793Z,20.02
2022-10-08T11:18:32.183Z,20.06
2022-10-08T11:21:16.997Z,20.09
2022-10-08T11:24:07.189Z,20.11
2022-10-08T11:26:53.471Z,20.15
2022-10-08T11:29:24.040Z,20.23
2022-10-08T11:31:52.893Z,20.22
2022-10-08T11:34:34.066Z,20.29
2022-10-08T11:37:09.548Z,20.35
2022-10-08T11:40:08.265Z,20.41
2022-10-08T11:42:48.986Z,20.41
2022-10-08T11:45:29.001Z,20.41
2022-10-08T11:47:59.037Z,20.43
2022-10-08T11:50:36.224Z,20.44
2022-10-08T11:53:16.259Z,20.46
2022-10-08T11:56:01.935Z,20.47
2022-10-08T11:58:32.019Z,20.50
2022-10-08T12:01:10.112Z,20.53
2022-10-08T12:03:43.424Z,20.52
2022-10-08T12:06:24.667Z,20.49
2022-10-08T12:09:04.331Z,20.58
2022-10-08T12:11:39.962Z,20.58
2022-10-08T12:14:12.717Z,20.58
2022-10-08T12:16:48.684Z,20.62
2022-10-08T12:19:33.930Z,20.66
2022-10-08T12:22:07.355Z,20.71
2022-10-08T12:24:53.810Z,20.77
2022-10-08T12:27:22.453Z,20.74
2022-10-08T12:30:12.695Z,20.92
2022-10-08T12:32:42.586Z,21.01
2022-10-08T12:35:27.045Z,21.07
2022-10-08T12:38:18.478Z,21.14
2022-10-08T12:41:17.640Z,21.21
2022-10-08T12:44:11.296Z,21.26
2022-10-08T12:47:30.084Z,21.29
2022-10-08T12:50:39.669Z,21.30
2022-10-08T12:53:08.411Z,21.31
2022-10-08T12:55:46.402Z,21.38
2022-10-08T12:58:22.257Z,21.44
2022-10-08T13:01:00.385Z,21.48
2022-10-08T13:03:27.528Z,21.49
2022-10-08T13:05:55.432Z,21.39
2022-10-08T13:08:39.547Z,21.45
2022-10-08T13:11:11.415Z,21.41
2022-10-08T13:13:45.887Z,21.33
2022-10-08T13:16:24.762Z,21.17
2022-10-08T13:18:59.915Z,20.95
2022-10-08T13:21:38.271Z,20.71
2022-10-08T13:24:25.369Z,20.48
2022-10-08T13:26:55.090Z,20.28
2022-10-08T13:29:21.979Z,20.08
2022-10-08T13:32:13.049Z,19.85
2022-10-08T13:34:43.435Z,19.68
2022-10-08T13:37:20.965Z,19.54
2022-10-08T13:39:57.560Z,19.45
2022-10-08T13:42:29.917Z,19.37
2022-10-08T13:44:59.857Z,19.36
2022-10-08T13:47:28.840Z,19.32
2022-10-08T13:50:01.563Z,19.29
2022-10-08T13:52:31.118Z,19.24
2022-10-08T13:55:03.290Z,19.17
2022-10-08T13:57:30.477Z,19.09
2022-10-08T13:59:57.363Z,19.05
2022-10-08T14:02:24.326Z,19.07
2022-10-08T14:04:52.787Z,19.07
2022-10-08T14:07:25.721Z,19.07
2022-10-08T14:09:55.128Z,19.05
2022-10-08T14:12:26.659Z,19.02
2022-10-08T14:14:54.422Z,19.01
2022-10-08T14:17:21.804Z,18.98
2022-10-08T14:19:49.581Z,18.94
2022-10-08T14:22:16.987Z,18.90
2022-10-08T14:24:43.910Z,18.85
2022-10-08T14:27:10.801Z,18.78
2022-10-08T14:29:37.694Z,18.72
2022-10-08T14:32:07.898Z,18.63
2022-10-08T14:34:35.681Z,18.60
2022-10-08T14:37:03.449Z,18.60
2022-10-08T14:39:30.323Z,18.57
2022-10-08T14:41:58.512Z,18.55
2022-10-08T14:44:25.399Z,18.53
2022-10-08T14:46:52.899Z,18.52
2022-10-08T14:49:20.975Z,18.50
2022-10-08T14:51:48.425Z,18.48
2022-10-08T14:54:15.368Z,18.47
2022-10-08T14:56:42.778Z,18.47
2022-10-08T14:59:12.638Z,18.48
2022-10-08T15:01:39.795Z,18.47
2022-10-08T15:04:07.511Z,18.46
2022-10-08T15:06:34.777Z,18.46
2022-10-08T15:09:01.774Z,18.40
2022-10-08T15:11:28.668Z,18.45
2022-10-08T15:13:55.666Z,18.39
2022-10-08T15:16:23.016Z,18.42
2022-10-08T15:18:50.037Z,18.34
2022-10-08T15:21:18.200Z,18.35
2022-10-08T15:23:45.218Z,18.38
2022-10-08T15:26:17.078Z,18.35
2022-10-08T15:28:46.168Z,18.31
2022-10-08T15:31:18.705Z,18.26
2022-10-08T15:33:50.958Z,18.19
2022-10-08T15:36:27.364Z,18.12
2022-10-08T15:39:01.948Z,18.07
2022-10-08T15:41:34.143Z,18.02
2022-10-08T15:44:21.928Z,17.97
2022-10-08T15:46:59.299Z,17.86
2022-10-08T15:49:37.898Z,17.85
2022-10-08T15:52:08.189Z,17.81
2022-10-08T15:54:38.660Z,17.74
2022-10-08T15:57:06.736Z,17.71
2022-10-08T15:59:34.295Z,17.66
2022-10-08T16:02:01.342Z,17.61
2022-10-08T16:04:28.323Z,17.53
2022-10-08T16:06:55.492Z,17.47
2022-10-08T16:09:23.236Z,17.40
2022-10-08T16:11:51.403Z,17.33
2022-10-08T16:14:21.959Z,17.22
2022-10-08T16:16:50.152Z,17.19
2022-10-08T16:19:25.963Z,17.10
2022-10-08T16:21:56.525Z,16.99
2022-10-08T16:24:23.749Z,17.01
2022-10-08T16:26:50.833Z,16.91
2022-10-08T16:29:18.765Z,16.89
2022-10-08T16:31:47.728Z,16.83
2022-10-08T16:34:22.012Z,16.77
2022-10-08T16:36:49.756Z,16.71
2022-10-08T16:39:21.013Z,16.66
2022-10-08T16:41:49.359Z,16.58
2022-10-08T16:44:19.259Z,16.55
2022-10-08T16:46:50.371Z,16.51
2022-10-08T16:49:26.018Z,16.46
2022-10-08T16:52:00.023Z,16.40
2022-10-08T16:54:27.836Z,16.35
2022-10-08T16:56:54.988Z,16.35
2022-10-08T16:59:25.228Z,16.32
2022-10-08T17:01:55.597Z,16.29
2022-10-08T17:04:24.967Z,16.25
2022-10-08T17:06:52.370Z,16.22
2022-10-08T17:09:20.569Z,16.18
2022-10-08T17:11:47.671Z,16.13
2022-10-08T17:14:14.575Z,16.12
2022-10-08T17:16:43.435Z,16.09
2022-10-08T17:19:11.015Z,16.08
2022-10-08T17:21:38.331Z,16.04
2022-10-08T17:24:06.104Z,15.99
2022-10-08T17:26:33.144Z,15.97
2022-10-08T17:29:09.412Z,15.94
2022-10-08T17:31:37.386Z,15.90
2022-10-08T17:34:05.735Z,15.90
2022-10-08T17:36:36.182Z,15.89
2022-10-08T17:39:07.204Z,15.86
2022-10-08T17:41:37.515Z,15.84
2022-10-08T17:44:07.232Z,15.83
2022-10-08T17:46:38.223Z,15.78
2022-10-08T17:49:06.199Z,15.77
2022-10-08T17:51:33.359Z,15.74
2022-10-08T17:54:03.755Z,15.72
2022-10-08T17:56:31.385Z,15.71
2022-10-08T17:58:58.735Z,15.68
2022-10-08T18:01:34.833Z,15.65
2022-10-08T18:04:03.757Z,15.62
2022-10-08T18:06:32.789Z,15.62
2022-10-08T18:09:06.060Z,15.59
2022-10-08T18:11:36.257Z,15.56
2022-10-08T18:14:05.363Z,15.53
2022-10-08T18:16:32.546Z,15.50
2022-10-08T18:19:01.031Z,15.49
2022-10-08T18:21:29.846Z,15.44
2022-10-08T18:23:58.772Z,15.42
2022-10-08T18:26:34.340Z,15.38
2022-10-08T18:29:05.248Z,15.38
2022-10-08T18:31:33.272Z,15.34
2022-10-08T18:34:09.648Z,15.31
2022-10-08T18:36:38.816Z,15.29
2022-10-08T18:39:18.352Z,15.26
2022-10-08T18:41:48.520Z,15.23
2022-10-08T18:44:22.012Z,15.20
2022-10-08T18:46:49.325Z,15.18
2022-10-08T18:49:30.611Z,15.16
2022-10-08T18:51:58.423Z,15.09
2022-10-08T18:54:25.660Z,15.11
2022-10-08T18:56:52.595Z,15.10
2022-10-08T18:59:19.742Z,15.06
2022-10-08T19:01:48.278Z,15.04
2022-10-08T19:04:21.849Z,14.93
2022-10-08T19:06:52.074Z,14.99
2022-10-08T19:09:19.283Z,14.98
2022-10-08T19:11:49.959Z,14.95
2022-10-08T19:14:20.351Z,14.93
2022-10-08T19:16:48.127Z,14.91
2022-10-08T19:19:24.317Z,14.88
2022-10-08T19:21:52.921Z,14.86
2022-10-08T19:24:22.913Z,14.84
2022-10-08T19:26:50.903Z,14.83
2022-10-08T19:29:24.943Z,14.81
2022-10-08T19:31:51.946Z,14.81
2022-10-08T19:34:22.760Z,14.80
2022-10-08T19:36:49.948Z,14.76
2022-10-08T19:39:27.540Z,14.76
2022-10-08T19:41:54.634Z,14.75
2022-10-08T19:44:22.509Z,14.73
2022-10-08T19:46:49.718Z,14.73
2022-10-08T19:49:17.200Z,14.72
2022-10-08T19:51:44.362Z,14.69
2022-10-08T19:54:11.864Z,14.68
2022-10-08T19:56:39.001Z,14.64
2022-10-08T19:59:06.369Z,14.66
2022-10-08T20:01:36.386Z,14.64
2022-10-08T20:04:05.782Z,14.63
2022-10-08T20:06:36.381Z,14.62
2022-10-08T20:09:05.047Z,14.61
2022-10-08T20:11:32.614Z,14.59
2022-10-08T20:14:00.948Z,14.58
2022-10-08T20:16:34.578Z,14.56
2022-10-08T20:19:08.534Z,14.55
2022-10-08T20:21:37.841Z,14.52
2022-10-08T20:24:05.524Z,14.51
2022-10-08T20:26:35.419Z,14.49
2022-10-08T20:29:06.219Z,14.46
2022-10-08T20:31:43.282Z,14.44
2022-10-08T20:34:13.563Z,14.41
2022-10-08T20:36:40.878Z,14.39
2022-10-08T20:39:07.970Z,14.34
2022-10-08T20:41:34.827Z,14.35
2022-10-08T20:44:03.579Z,14.35
2022-10-08T20:46:32.118Z,14.30
2022-10-08T20:48:59.671Z,14.30
2022-10-08T20:51:28.767Z,14.26
2022-10-08T20:54:01.920Z,14.24
2022-10-08T20:56:30.082Z,14.21
2022-10-08T20:58:57.809Z,14.20
2022-10-08T21:01:33.952Z,14.17
2022-10-08T21:04:01.035Z,14.16
2022-10-08T21:06:31.556Z,14.13
2022-10-08T21:08:59.349Z,14.11
2022-10-08T21:11:29.366Z,14.10
2022-10-08T21:13:57.679Z,14.08
2022-10-08T21:16:28.560Z,14.05
2022-10-08T21:19:02.215Z,14.04
2022-10-08T21:21:31.128Z,14.01
2022-10-08T21:23:58.805Z,14.00
2022-10-08T21:26:38.905Z,13.99
2022-10-08T21:29:10.512Z,13.96
2022-10-08T21:31:40.047Z,13.94
2022-10-08T21:34:07.055Z,13.91
2022-10-08T21:36:40.382Z,13.91
2022-10-08T21:39:10.220Z,13.90
2022-10-08T21:41:38.104Z,13.89
2022-10-08T21:44:07.511Z,13.85
2022-10-08T21:46:39.116Z,13.85
2022-10-08T21:49:13.147Z,13.82
2022-10-08T21:51:40.075Z,13.80
2022-10-08T21:54:07.620Z,13.78
2022-10-08T21:56:37.147Z,13.77
2022-10-08T21:59:06.444Z,13.75
2022-10-08T22:01:46.070Z,13.75
2022-10-08T22:04:22.650Z,13.72
2022-10-08T22:06:55.359Z,13.71
2022-10-08T22:09:28.667Z,13.69
2022-10-08T22:11:57.551Z,13.63
2022-10-08T22:14:25.230Z,13.64
2022-10-08T22:16:52.259Z,13.63
2022-10-08T22:19:19.693Z,13.61
2022-10-08T22:21:47.207Z,13.54
2022-10-08T22:24:14.286Z,13.51
2022-10-08T22:26:45.500Z,13.54
2022-10-08T22:29:12.530Z,13.52
2022-10-08T22:31:40.494Z,13.51
2022-10-08T22:34:07.903Z,13.49
2022-10-08T22:36:40.788Z,13.47
2022-10-08T22:39:08.432Z,13.46
2022-10-08T22:41:35.445Z,13.43
2022-10-08T22:44:03.661Z,13.43
2022-10-08T22:46:36.443Z,13.42
2022-10-08T22:49:09.204Z,13.40
2022-10-08T22:51:36.783Z,13.40
2022-10-08T22:54:03.817Z,13.40
2022-10-08T22:56:31.748Z,13.38
2022-10-08T22:59:00.001Z,13.37
2022-10-08T23:01:28.813Z,13.36
2022-10-08T23:03:56.295Z,13.35
2022-10-08T23:06:31.957Z,13.35
2022-10-08T23:09:08.168Z,13.33
2022-10-08T23:11:35.609Z,13.32
2022-10-08T23:14:02.836Z,13.26
2022-10-08T23:16:32.930Z,13.30
2022-10-08T23:19:07.387Z,13.30
2022-10-08T23:21:35.510Z,13.29
2022-10-08T23:24:03.411Z,13.29
2022-10-08T23:26:30.312Z,13.28
2022-10-08T23:29:00.064Z,13.27
2022-10-08T23:31:33.468Z,13.23
2022-10-08T23:34:01.328Z,13.25
2022-10-08T23:36:32.772Z,13.23
2022-10-08T23:38:59.665Z,13.22
2022-10-08T23:41:28.083Z,13.19
2022-10-08T23:43:56.417Z,13.19
2022-10-08T23:46:26.352Z,13.17
2022-10-08T23:48:53.968Z,13.14
2022-10-08T23:51:21.864Z,13.14
2022-10-08T23:53:50.602Z,13.13
2022-10-08T23:56:17.944Z,13.10
2022-10-08T23:58:44.815Z,13.12
